createdAt,value
2019-02-04T00:00:50.482Z,91.7
2019-02-04T00:02:50.454Z,91.8
2019-02-04T00:04:51.740Z,92.7
2019-02-04T00:06:50.093Z,92.6
2019-02-04T00:08:50.057Z,92.0
2019-02-04T00:10:50.069Z,92.1
2019-02-04T00:12:51.192Z,92.0
2019-02-04T00:14:50.398Z,92.0
2019-02-04T00:16:50.478Z,92.5
2019-02-04T00:18:50.441Z,92.3
2019-02-04T00:20:51.580Z,92.4
2019-02-04T00:22:49.816Z,92.3
2019-02-04T00:24:50.905Z,92.5
2019-02-04T00:26:52.345Z,92.6
2019-02-04T00:28:51.460Z,93.5
2019-02-04T00:30:50.764Z,93.6
2019-02-04T00:32:50.713Z,94.5
2019-02-04T09:44:50.795Z,94.6
2019-02-04T09:46:49.890Z,81
2019-02-04T09:48:49.830Z,81
2019-02-04T09:50:49.870Z,81
2019-02-04T09:52:50.813Z,80
2019-02-04T09:54:50.749Z,80
2019-02-04T09:56:49.834Z,80
2019-02-04T09:58:49.819Z,80
2019-02-04T10:00:50.738Z,80
2019-02-04T10:02:50.765Z,80
2019-02-04T10:04:49.871Z,80
2019-02-04T10:06:50.022Z,80
2019-02-04T10:08:49.964Z,79
2019-02-04T10:10:49.942Z,79
2019-02-04T10:12:53.027Z,79
2019-02-04T10:14:50.090Z,79
2019-02-04T10:16:50.256Z,79
2019-02-04T10:18:50.266Z,79
2019-02-04T10:20:50.353Z,79
2019-02-04T10:22:50.442Z,79
2019-02-04T10:24:50.577Z,79
2019-02-04T10:26:50.770Z,79
2019-02-04T10:28:50.881Z,79
2019-02-04T10:30:49.987Z,79
2019-02-04T10:32:50.189Z,79
2019-02-04T10:34:50.478Z,79
2019-02-04T10:36:50.684Z,78
2019-02-04T10:38:50.727Z,78
2019-02-04T10:40:50.885Z,78
2019-02-04T10:42:50.201Z,78
2019-02-04T10:44:50.357Z,78
2019-02-04T10:46:51.498Z,77
2019-02-04T10:48:50.888Z,77
2019-02-04T10:50:50.090Z,77
2019-02-04T10:52:50.121Z,77
2019-02-04T10:54:51.269Z,76
2019-02-04T10:56:50.653Z,76
2019-02-04T10:58:50.741Z,76
2019-02-04T11:00:50.914Z,76
2019-02-04T11:02:49.995Z,76
2019-02-04T11:04:50.429Z,76
2019-02-04T11:06:50.554Z,75
2019-02-04T11:08:50.779Z,75
2019-02-04T11:10:50.972Z,75
2019-02-04T11:12:50.026Z,75
2019-02-04T11:14:50.145Z,75
2019-02-04T11:16:50.328Z,74
2019-02-04T11:18:50.530Z,74
2019-02-04T11:20:58.847Z,74
2019-02-04T11:22:50.043Z,74
2019-02-04T11:24:50.369Z,74
2019-02-04T11:26:50.494Z,74
2019-02-04T11:28:50.437Z,73
2019-02-04T11:30:50.714Z,73
2019-02-04T11:32:50.755Z,72
2019-02-04T11:34:50.173Z,72
2019-02-04T11:36:50.389Z,71
2019-02-04T11:38:50.768Z,71
2019-02-04T11:40:51.122Z,71
2019-02-04T11:42:50.534Z,71
2019-02-04T11:44:51.016Z,70
2019-02-04T11:46:50.470Z,70
2019-02-04T11:48:50.564Z,70
2019-02-04T11:50:50.669Z,70
2019-02-04T11:52:50.795Z,70
2019-02-04T11:54:50.904Z,70
2019-02-04T11:56:50.108Z,70
2019-02-04T11:58:50.295Z,70
2019-02-04T12:00:50.378Z,69
2019-02-04T12:02:50.533Z,69
2019-02-04T12:04:51.970Z,69
2019-02-04T12:06:50.224Z,69
2019-02-04T12:08:50.534Z,68
2019-02-04T12:10:50.668Z,68
2019-02-04T12:12:52.166Z,69
2019-02-04T12:14:50.587Z,68
2019-02-04T12:16:50.775Z,68
2019-02-04T12:18:49.969Z,68
2019-02-04T12:20:51.836Z,66
2019-02-04T12:22:50.290Z,65
2019-02-04T12:24:50.379Z,65
2019-02-04T12:26:50.643Z,65
2019-02-04T12:28:51.469Z,66
2019-02-04T12:30:50.961Z,66
2019-02-04T12:32:50.051Z,66
2019-02-04T12:34:50.339Z,66
2019-02-04T12:36:50.851Z,66
2019-02-04T12:38:49.957Z,65
2019-02-04T12:40:50.106Z,64
2019-02-04T12:42:50.229Z,64
2019-02-04T12:44:50.336Z,64
2019-02-04T12:46:50.488Z,63
2019-02-04T12:48:50.604Z,63
2019-02-04T12:50:50.687Z,63
2019-02-04T12:52:50.761Z,62
2019-02-04T12:54:50.982Z,62
2019-02-04T12:56:50.120Z,61
2019-02-04T12:58:56.437Z,61
2019-02-04T13:00:50.591Z,61
2019-02-04T13:02:50.812Z,61
2019-02-04T13:04:50.128Z,60
2019-02-04T13:06:50.432Z,54.4
2019-02-04T13:08:50.509Z,55.0
2019-02-04T13:10:50.748Z,58.7
2019-02-04T13:12:50.906Z,59.4
2019-02-04T13:14:50.901Z,57.8
2019-02-04T13:16:50.051Z,59.5
2019-02-04T13:18:50.243Z,58.4
2019-02-04T13:20:50.397Z,57.0
2019-02-04T13:22:52.149Z,57.5
2019-02-04T13:24:50.563Z,59.6
2019-02-04T13:26:50.797Z,58.7
2019-02-04T13:28:50.926Z,59.5
2019-02-04T13:30:51.990Z,61
2019-02-04T13:32:50.358Z,61
2019-02-04T13:34:50.682Z,61
2019-02-04T13:36:50.857Z,61
2019-02-04T13:38:52.736Z,60
2019-02-04T13:40:50.026Z,60
2019-02-04T13:42:50.193Z,60
2019-02-04T13:44:50.295Z,60
2019-02-04T13:46:52.480Z,60
2019-02-04T13:48:50.803Z,60
2019-02-04T13:50:50.896Z,60
2019-02-04T13:52:50.027Z,60
2019-02-04T13:54:50.479Z,60
2019-02-04T13:56:50.951Z,60
2019-02-04T13:58:50.080Z,60
2019-02-04T14:00:50.217Z,60
2019-02-04T14:03:00.433Z,60
2019-02-04T14:04:50.820Z,60
2019-02-04T14:06:49.989Z,60
2019-02-04T14:08:50.078Z,60
2019-02-04T14:10:50.182Z,60
2019-02-04T14:12:50.493Z,60
2019-02-04T14:14:50.611Z,60
2019-02-04T14:16:50.785Z,60
2019-02-04T14:18:50.927Z,60
2019-02-04T14:20:50.043Z,59
2019-02-04T14:22:53.559Z,59
2019-02-04T14:24:50.654Z,59
2019-02-04T14:26:50.860Z,60
2019-02-04T14:28:50.900Z,60
2019-02-04T14:30:50.014Z,60
2019-02-04T14:32:50.300Z,60
2019-02-04T14:34:56.470Z,60
2019-02-04T14:36:50.047Z,60
2019-02-04T14:38:50.229Z,60
2019-02-04T14:40:50.344Z,60
2019-02-04T14:42:50.405Z,60
2019-02-04T14:44:50.501Z,60
2019-02-04T14:46:50.773Z,60
2019-02-04T14:48:50.835Z,60
2019-02-04T14:50:50.907Z,60
2019-02-04T14:52:49.989Z,60
2019-02-04T14:54:50.081Z,60
2019-02-04T14:56:50.402Z,60
2019-02-04T14:58:50.766Z,60
2019-02-04T15:00:49.969Z,61
2019-02-04T15:02:49.860Z,61
2019-02-04T15:04:49.893Z,61
2019-02-04T15:06:51.132Z,61
2019-02-04T15:08:50.412Z,61
2019-02-04T15:10:50.349Z,61
2019-02-04T15:12:50.296Z,63.9
2019-02-04T15:14:51.496Z,65.5
2019-02-04T15:16:49.817Z,67.6
2019-02-04T15:18:49.840Z,68.9
2019-02-04T15:20:50.772Z,68.4
2019-02-04T15:22:51.705Z,68.4
2019-02-04T15:24:49.958Z,69.0
2019-02-04T15:26:50.088Z,70.3
2019-02-04T15:28:50.027Z,70.8
2019-02-04T15:30:51.306Z,71.5
2019-02-04T15:32:49.833Z,71.5
2019-02-04T15:34:49.973Z,71.9
2019-02-04T15:36:50.109Z,73.1
2019-02-04T15:38:51.166Z,73.4
2019-02-04T15:40:50.415Z,72.8
2019-02-04T15:42:50.397Z,73.3
2019-02-04T15:44:50.347Z,75.3
2019-02-04T15:46:51.566Z,76.6
2019-02-04T15:48:50.393Z,75.9
2019-02-04T15:50:50.447Z,77.5
2019-02-04T15:52:49.843Z,76.5
2019-02-04T15:54:51.990Z,77.4
2019-02-04T15:56:50.328Z,78.4
2019-02-04T15:58:50.348Z,78.9
2019-02-04T16:00:50.304Z,79.4
2019-02-04T16:02:51.624Z,79.3
2019-02-04T16:04:50.298Z,79.7
2019-02-04T16:06:50.324Z,80.2
2019-02-04T16:08:50.275Z,80.5
2019-02-04T16:10:50.259Z,79.8
2019-02-04T16:12:50.189Z,80.4
2019-02-04T16:14:50.167Z,80.8
2019-02-04T16:16:50.249Z,80.7
2019-02-04T16:18:50.148Z,81.6
